< < Back
Terminal Aerodrome Forecast


Current Version              Previous Versions:   1  2  3  4  5  6  7  8  9  

Terminal Aerodrome Forecast

248
FTUS42 KJAX 212300 AAA
TAFGNV
TAF AMD
KGNV 212330Z 2200/2224 VRB03KT P6SM VCTS SCT050CB BKN250
     FM220100 00000KT P6SM SCT100 BKN250
     FM221600 31006KT P6SM FEW050 SCT250=

Latest METAR

382
SAUS70 KWBC 220000 RRM
MTRGNV
METAR KGNV 212353Z 23011KT 10SM VCTS FEW055 26/21 A3009 RMK AO2 LTG DSNT
SW-N TSB24E47 SLP187 T02610211 10356 20256 53020


USA.gov is the U.S. government's official web portal to all federal, state and local government web resources and services.